sensor_id;sensor_type;location;lat;lon;timestamp;temperature;humidity
29237;DHT22;16266;50.866;4.398;2022-12-07T00:03:39;6.60;99.90
29237;DHT22;16266;50.866;4.398;2022-12-07T00:06:07;6.60;99.90
29237;DHT22;16266;50.866;4.398;2022-12-07T00:08:34;6.40;99.90
29237;DHT22;16266;50.866;4.398;2022-12-07T00:11:04;6.30;99.90
29237;DHT22;16266;50.866;4.398;2022-12-07T00:13:31;6.20;99.90
29237;DHT22;16266;50.866;4.398;2022-12-07T00:16:05;6.00;99.90
29237;DHT22;16266;50.866;4.398;2022-12-07T00:18:31;5.90;99.90
29237;DHT22;16266;50.866;4.398;2022-12-07T00:21:05;5.80;99.90
29237;DHT22;16266;50.866;4.398;2022-12-07T00:23:32;5.70;99.90
29237;DHT22;16266;50.866;4.398;2022-12-07T00:26:12;5.70;99.90
29237;DHT22;16266;50.866;4.398;2022-12-07T00:28:38;5.70;99.90
29237;DHT22;16266;50.866;4.398;2022-12-07T00:31:06;5.60;99.90
29237;DHT22;16266;50.866;4.398;2022-12-07T00:33:33;5.50;99.90
29237;DHT22;16266;50.866;4.398;2022-12-07T00:36:00;5.50;99.90
29237;DHT22;16266;50.866;4.398;2022-12-07T00:38:28;5.50;99.90
29237;DHT22;16266;50.866;4.398;2022-12-07T00:41:15;5.50;99.90
29237;DHT22;16266;50.866;4.398;2022-12-07T00:43:42;5.50;99.90
29237;DHT22;16266;50.866;4.398;2022-12-07T00:46:08;5.40;99.90
29237;DHT22;16266;50.866;4.398;2022-12-07T00:48:34;5.40;99.90
29237;DHT22;16266;50.866;4.398;2022-12-07T00:51:00;5.40;99.90
29237;DHT22;16266;50.866;4.398;2022-12-07T00:53:27;5.40;99.90
29237;DHT22;16266;50.866;4.398;2022-12-07T00:55:52;5.40;99.90
29237;DHT22;16266;50.866;4.398;2022-12-07T00:58:19;5.20;99.90
29237;DHT22;16266;50.866;4.398;2022-12-07T01:00:45;5.20;99.90
29237;DHT22;16266;50.866;4.398;2022-12-07T01:03:12;5.20;99.90
29237;DHT22;16266;50.866;4.398;2022-12-07T01:05:39;5.30;99.90
29237;DHT22;16266;50.866;4.398;2022-12-07T01:08:05;5.20;99.90
29237;DHT22;16266;50.866;4.398;2022-12-07T01:10:31;5.20;99.90
29237;DHT22;16266;50.866;4.398;2022-12-07T01:12:58;5.30;99.90
29237;DHT22;16266;50.866;4.398;2022-12-07T01:15:25;5.30;99.90
29237;DHT22;16266;50.866;4.398;2022-12-07T01:17:51;5.40;99.90
29237;DHT22;16266;50.866;4.398;2022-12-07T01:20:16;5.40;99.90
29237;DHT22;16266;50.866;4.398;2022-12-07T01:22:43;5.30;99.90
29237;DHT22;16266;50.866;4.398;2022-12-07T01:25:10;5.20;99.90
29237;DHT22;16266;50.866;4.398;2022-12-07T01:27:36;5.20;99.90
29237;DHT22;16266;50.866;4.398;2022-12-07T01:30:04;5.10;99.90
29237;DHT22;16266;50.866;4.398;2022-12-07T01:32:30;5.10;99.90
29237;DHT22;16266;50.866;4.398;2022-12-07T01:34:56;5.20;99.90
29237;DHT22;16266;50.866;4.398;2022-12-07T01:37:22;5.10;99.90
29237;DHT22;16266;50.866;4.398;2022-12-07T01:39:51;5.20;99.90
29237;DHT22;16266;50.866;4.398;2022-12-07T01:42:18;5.20;99.90
29237;DHT22;16266;50.866;4.398;2022-12-07T01:47:50;5.40;99.90
29237;DHT22;16266;50.866;4.398;2022-12-07T01:50:18;5.50;99.90
29237;DHT22;16266;50.866;4.398;2022-12-07T01:52:45;5.40;99.90
29237;DHT22;16266;50.866;4.398;2022-12-07T01:55:14;5.50;99.90
29237;DHT22;16266;50.866;4.398;2022-12-07T01:57:43;5.60;99.90
29237;DHT22;16266;50.866;4.398;2022-12-07T02:00:11;5.70;99.90
29237;DHT22;16266;50.866;4.398;2022-12-07T02:02:43;5.90;99.90
29237;DHT22;16266;50.866;4.398;2022-12-07T02:05:11;6.00;99.90
29237;DHT22;16266;50.866;4.398;2022-12-07T02:07:38;6.10;99.90
29237;DHT22;16266;50.866;4.398;2022-12-07T02:10:20;6.20;99.90
29237;DHT22;16266;50.866;4.398;2022-12-07T02:12:49;6.30;99.90
29237;DHT22;16266;50.866;4.398;2022-12-07T02:15:16;6.30;99.90
29237;DHT22;16266;50.866;4.398;2022-12-07T02:17:54;6.30;99.90
29237;DHT22;16266;50.866;4.398;2022-12-07T02:20:39;6.40;99.90
29237;DHT22;16266;50.866;4.398;2022-12-07T02:31:33;6.20;99.90
29237;DHT22;16266;50.866;4.398;2022-12-07T02:34:38;6.30;99.90
29237;DHT22;16266;50.866;4.398;2022-12-07T02:37:21;6.40;99.90
29237;DHT22;16266;50.866;4.398;2022-12-07T02:39:57;6.50;99.90
29237;DHT22;16266;50.866;4.398;2022-12-07T02:42:31;6.50;99.90
29237;DHT22;16266;50.866;4.398;2022-12-07T02:44:59;6.40;99.90
29237;DHT22;16266;50.866;4.398;2022-12-07T02:47:26;6.40;99.90
29237;DHT22;16266;50.866;4.398;2022-12-07T02:49:52;6.40;99.90
29237;DHT22;16266;50.866;4.398;2022-12-07T02:52:18;6.40;99.90
29237;DHT22;16266;50.866;4.398;2022-12-07T02:54:44;6.20;99.90
29237;DHT22;16266;50.866;4.398;2022-12-07T02:57:42;6.20;99.90
29237;DHT22;16266;50.866;4.398;2022-12-07T03:00:28;6.00;99.90
29237;DHT22;16266;50.866;4.398;2022-12-07T03:03:22;5.80;99.90
29237;DHT22;16266;50.866;4.398;2022-12-07T03:05:59;5.70;99.90
29237;DHT22;16266;50.866;4.398;2022-12-07T03:11:44;5.40;99.90
29237;DHT22;16266;50.866;4.398;2022-12-07T03:14:18;5.20;99.90
29237;DHT22;16266;50.866;4.398;2022-12-07T03:17:08;5.20;99.90
29237;DHT22;16266;50.866;4.398;2022-12-07T03:19:36;5.20;99.90
29237;DHT22;16266;50.866;4.398;2022-12-07T03:22:07;5.00;99.90
29237;DHT22;16266;50.866;4.398;2022-12-07T03:24:39;5.10;99.90
29237;DHT22;16266;50.866;4.398;2022-12-07T03:27:16;5.10;99.90
29237;DHT22;16266;50.866;4.398;2022-12-07T03:29:57;5.20;99.90
29237;DHT22;16266;50.866;4.398;2022-12-07T03:32:30;5.20;99.90
29237;DHT22;16266;50.866;4.398;2022-12-07T03:35:11;5.30;99.90
29237;DHT22;16266;50.866;4.398;2022-12-07T03:40:49;5.30;99.90
29237;DHT22;16266;50.866;4.398;2022-12-07T03:43:18;5.20;99.90
29237;DHT22;16266;50.866;4.398;2022-12-07T03:46:01;5.10;99.90
29237;DHT22;16266;50.866;4.398;2022-12-07T03:48:42;4.90;99.90
29237;DHT22;16266;50.866;4.398;2022-12-07T03:51:18;4.90;99.90
29237;DHT22;16266;50.866;4.398;2022-12-07T03:54:02;5.00;99.90
29237;DHT22;16266;50.866;4.398;2022-12-07T03:56:33;5.00;99.90
29237;DHT22;16266;50.866;4.398;2022-12-07T03:58:58;4.80;99.90
29237;DHT22;16266;50.866;4.398;2022-12-07T04:01:24;4.80;99.90
29237;DHT22;16266;50.866;4.398;2022-12-07T04:03:50;4.70;99.90
29237;DHT22;16266;50.866;4.398;2022-12-07T04:06:16;4.70;99.90
29237;DHT22;16266;50.866;4.398;2022-12-07T04:08:42;4.70;99.90
29237;DHT22;16266;50.866;4.398;2022-12-07T04:11:08;4.70;99.90
29237;DHT22;16266;50.866;4.398;2022-12-07T04:13:33;4.60;99.90
29237;DHT22;16266;50.866;4.398;2022-12-07T04:16:19;4.60;99.90
29237;DHT22;16266;50.866;4.398;2022-12-07T04:18:45;4.50;99.90
29237;DHT22;16266;50.866;4.398;2022-12-07T04:21:11;4.50;99.90
29237;DHT22;16266;50.866;4.398;2022-12-07T04:23:36;4.40;99.90
29237;DHT22;16266;50.866;4.398;2022-12-07T04:26:02;4.40;99.90
29237;DHT22;16266;50.866;4.398;2022-12-07T04:28:27;4.40;99.90
29237;DHT22;16266;50.866;4.398;2022-12-07T04:30:53;4.30;99.90
29237;DHT22;16266;50.866;4.398;2022-12-07T04:33:19;4.40;99.90
29237;DHT22;16266;50.866;4.398;2022-12-07T04:35:44;4.50;99.90
29237;DHT22;16266;50.866;4.398;2022-12-07T04:38:10;4.70;99.90
29237;DHT22;16266;50.866;4.398;2022-12-07T04:40:36;4.80;99.90
29237;DHT22;16266;50.866;4.398;2022-12-07T04:43:01;4.90;99.90
29237;DHT22;16266;50.866;4.398;2022-12-07T04:45:27;4.90;99.90
29237;DHT22;16266;50.866;4.398;2022-12-07T04:47:52;5.00;99.90
29237;DHT22;16266;50.866;4.398;2022-12-07T04:50:18;5.00;99.90
29237;DHT22;16266;50.866;4.398;2022-12-07T04:52:43;5.00;99.90
29237;DHT22;16266;50.866;4.398;2022-12-07T04:55:09;5.10;99.90
29237;DHT22;16266;50.866;4.398;2022-12-07T04:57:35;5.10;99.90
29237;DHT22;16266;50.866;4.398;2022-12-07T05:00:00;5.20;99.90
29237;DHT22;16266;50.866;4.398;2022-12-07T05:02:26;5.10;99.90
29237;DHT22;16266;50.866;4.398;2022-12-07T05:04:52;5.00;99.90
29237;DHT22;16266;50.866;4.398;2022-12-07T05:07:17;4.90;99.90
29237;DHT22;16266;50.866;4.398;2022-12-07T05:09:43;4.90;99.90
29237;DHT22;16266;50.866;4.398;2022-12-07T05:12:09;4.80;99.90
29237;DHT22;16266;50.866;4.398;2022-12-07T05:14:34;4.80;99.90
29237;DHT22;16266;50.866;4.398;2022-12-07T05:17:00;4.90;99.90
29237;DHT22;16266;50.866;4.398;2022-12-07T05:19:25;5.10;99.90
29237;DHT22;16266;50.866;4.398;2022-12-07T05:21:51;5.10;99.90
29237;DHT22;16266;50.866;4.398;2022-12-07T05:24:17;5.00;99.90
29237;DHT22;16266;50.866;4.398;2022-12-07T05:26:44;5.00;99.90
29237;DHT22;16266;50.866;4.398;2022-12-07T05:29:12;5.00;99.90
29237;DHT22;16266;50.866;4.398;2022-12-07T05:31:38;5.10;99.90
29237;DHT22;16266;50.866;4.398;2022-12-07T05:34:04;5.10;99.90
29237;DHT22;16266;50.866;4.398;2022-12-07T05:36:30;5.20;99.90
29237;DHT22;16266;50.866;4.398;2022-12-07T05:38:57;5.30;99.90
29237;DHT22;16266;50.866;4.398;2022-12-07T05:41:23;5.30;99.90
29237;DHT22;16266;50.866;4.398;2022-12-07T05:44:07;5.40;99.90
29237;DHT22;16266;50.866;4.398;2022-12-07T05:46:33;5.30;99.90
29237;DHT22;16266;50.866;4.398;2022-12-07T05:48:59;5.30;99.90
29237;DHT22;16266;50.866;4.398;2022-12-07T05:51:25;5.20;99.90
29237;DHT22;16266;50.866;4.398;2022-12-07T05:53:50;5.20;99.90
29237;DHT22;16266;50.866;4.398;2022-12-07T05:56:16;5.30;99.90
29237;DHT22;16266;50.866;4.398;2022-12-07T05:58:42;5.40;99.90
29237;DHT22;16266;50.866;4.398;2022-12-07T06:01:26;5.50;99.90
29237;DHT22;16266;50.866;4.398;2022-12-07T06:03:52;5.50;99.90
29237;DHT22;16266;50.866;4.398;2022-12-07T06:06:17;5.60;99.90
29237;DHT22;16266;50.866;4.398;2022-12-07T06:08:43;5.60;99.90
29237;DHT22;16266;50.866;4.398;2022-12-07T06:11:08;5.60;99.90
29237;DHT22;16266;50.866;4.398;2022-12-07T06:13:53;5.60;99.90
29237;DHT22;16266;50.866;4.398;2022-12-07T06:16:18;5.60;99.90
29237;DHT22;16266;50.866;4.398;2022-12-07T06:18:44;5.70;99.90
29237;DHT22;16266;50.866;4.398;2022-12-07T06:21:10;5.80;99.90
29237;DHT22;16266;50.866;4.398;2022-12-07T06:23:35;5.80;99.90
29237;DHT22;16266;50.866;4.398;2022-12-07T06:26:01;5.70;99.90
29237;DHT22;16266;50.866;4.398;2022-12-07T06:28:26;5.70;99.90
29237;DHT22;16266;50.866;4.398;2022-12-07T06:31:02;5.70;99.90
29237;DHT22;16266;50.866;4.398;2022-12-07T06:33:28;5.60;99.90
29237;DHT22;16266;50.866;4.398;2022-12-07T06:35:54;5.60;99.90
29237;DHT22;16266;50.866;4.398;2022-12-07T06:38:19;5.60;99.90
29237;DHT22;16266;50.866;4.398;2022-12-07T06:40:45;5.50;99.90
29237;DHT22;16266;50.866;4.398;2022-12-07T06:43:11;5.50;99.90
29237;DHT22;16266;50.866;4.398;2022-12-07T06:45:37;5.60;99.90
29237;DHT22;16266;50.866;4.398;2022-12-07T06:48:02;5.60;99.90
29237;DHT22;16266;50.866;4.398;2022-12-07T06:50:28;5.70;99.90
29237;DHT22;16266;50.866;4.398;2022-12-07T06:52:54;5.80;99.90
29237;DHT22;16266;50.866;4.398;2022-12-07T06:55:19;5.90;99.90
29237;DHT22;16266;50.866;4.398;2022-12-07T06:57:45;5.90;99.90
29237;DHT22;16266;50.866;4.398;2022-12-07T07:00:11;6.00;99.90
29237;DHT22;16266;50.866;4.398;2022-12-07T07:02:37;6.20;99.90
29237;DHT22;16266;50.866;4.398;2022-12-07T07:05:03;6.20;99.90
29237;DHT22;16266;50.866;4.398;2022-12-07T07:07:29;6.30;99.90
29237;DHT22;16266;50.866;4.398;2022-12-07T07:09:54;6.40;99.90
29237;DHT22;16266;50.866;4.398;2022-12-07T07:12:20;6.50;99.90
29237;DHT22;16266;50.866;4.398;2022-12-07T07:14:46;6.50;99.90
29237;DHT22;16266;50.866;4.398;2022-12-07T07:17:12;6.40;99.90
29237;DHT22;16266;50.866;4.398;2022-12-07T07:19:38;6.30;99.90
29237;DHT22;16266;50.866;4.398;2022-12-07T07:22:04;6.20;99.90
29237;DHT22;16266;50.866;4.398;2022-12-07T07:24:30;6.20;99.90
29237;DHT22;16266;50.866;4.398;2022-12-07T07:26:56;6.20;99.90
29237;DHT22;16266;50.866;4.398;2022-12-07T07:29:21;6.10;99.90
29237;DHT22;16266;50.866;4.398;2022-12-07T07:31:47;6.00;99.90
29237;DHT22;16266;50.866;4.398;2022-12-07T07:34:13;6.00;99.90
29237;DHT22;16266;50.866;4.398;2022-12-07T07:36:38;6.00;99.90
29237;DHT22;16266;50.866;4.398;2022-12-07T07:39:04;5.90;99.90
29237;DHT22;16266;50.866;4.398;2022-12-07T07:41:30;5.90;99.90
29237;DHT22;16266;50.866;4.398;2022-12-07T07:43:57;5.80;99.90
29237;DHT22;16266;50.866;4.398;2022-12-07T07:46:22;5.70;99.90
29237;DHT22;16266;50.866;4.398;2022-12-07T07:48:48;5.60;99.90
29237;DHT22;16266;50.866;4.398;2022-12-07T07:51:14;5.60;99.90
29237;DHT22;16266;50.866;4.398;2022-12-07T07:53:39;5.50;99.90
29237;DHT22;16266;50.866;4.398;2022-12-07T07:56:05;5.40;99.90
29237;DHT22;16266;50.866;4.398;2022-12-07T07:58:31;5.40;99.90
29237;DHT22;16266;50.866;4.398;2022-12-07T08:00:56;5.40;99.90
29237;DHT22;16266;50.866;4.398;2022-12-07T08:03:22;5.30;99.90
29237;DHT22;16266;50.866;4.398;2022-12-07T08:05:48;5.30;99.90
29237;DHT22;16266;50.866;4.398;2022-12-07T08:08:13;5.30;99.90
29237;DHT22;16266;50.866;4.398;2022-12-07T08:10:39;5.30;99.90
29237;DHT22;16266;50.866;4.398;2022-12-07T08:13:05;5.30;99.90
29237;DHT22;16266;50.866;4.398;2022-12-07T08:15:38;5.40;99.90
29237;DHT22;16266;50.866;4.398;2022-12-07T08:18:05;5.40;99.90
29237;DHT22;16266;50.866;4.398;2022-12-07T08:20:32;5.40;99.90
29237;DHT22;16266;50.866;4.398;2022-12-07T08:22:58;5.30;99.90
29237;DHT22;16266;50.866;4.398;2022-12-07T08:25:24;5.60;99.90
29237;DHT22;16266;50.866;4.398;2022-12-07T08:27:51;5.90;99.90
29237;DHT22;16266;50.866;4.398;2022-12-07T08:30:17;6.30;99.90
29237;DHT22;16266;50.866;4.398;2022-12-07T08:32:44;6.70;99.90
29237;DHT22;16266;50.866;4.398;2022-12-07T08:35:10;6.90;99.90
29237;DHT22;16266;50.866;4.398;2022-12-07T08:37:36;7.10;99.90
29237;DHT22;16266;50.866;4.398;2022-12-07T08:40:03;7.40;99.90
29237;DHT22;16266;50.866;4.398;2022-12-07T08:42:29;7.40;99.90
29237;DHT22;16266;50.866;4.398;2022-12-07T08:45:05;7.40;99.90
29237;DHT22;16266;50.866;4.398;2022-12-07T08:47:30;7.50;99.90
29237;DHT22;16266;50.866;4.398;2022-12-07T08:49:56;7.80;99.90
29237;DHT22;16266;50.866;4.398;2022-12-07T08:52:22;7.80;99.90
29237;DHT22;16266;50.866;4.398;2022-12-07T08:54:48;7.80;99.90
29237;DHT22;16266;50.866;4.398;2022-12-07T08:57:14;7.90;99.90
29237;DHT22;16266;50.866;4.398;2022-12-07T08:59:40;8.40;99.90
29237;DHT22;16266;50.866;4.398;2022-12-07T09:02:06;8.80;99.90
29237;DHT22;16266;50.866;4.398;2022-12-07T09:04:32;8.90;99.90
29237;DHT22;16266;50.866;4.398;2022-12-07T09:06:58;8.90;99.90
29237;DHT22;16266;50.866;4.398;2022-12-07T09:09:24;8.80;99.90
29237;DHT22;16266;50.866;4.398;2022-12-07T09:11:49;8.60;99.90
29237;DHT22;16266;50.866;4.398;2022-12-07T09:14:15;8.50;99.90
29237;DHT22;16266;50.866;4.398;2022-12-07T09:16:41;8.40;99.90
29237;DHT22;16266;50.866;4.398;2022-12-07T09:19:07;8.60;99.90
29237;DHT22;16266;50.866;4.398;2022-12-07T09:21:33;8.60;99.90
29237;DHT22;16266;50.866;4.398;2022-12-07T09:23:59;8.60;99.90
29237;DHT22;16266;50.866;4.398;2022-12-07T09:26:24;8.50;99.90
29237;DHT22;16266;50.866;4.398;2022-12-07T09:28:50;8.50;99.90
29237;DHT22;16266;50.866;4.398;2022-12-07T09:31:16;8.60;99.90
29237;DHT22;16266;50.866;4.398;2022-12-07T09:33:42;8.70;99.90
29237;DHT22;16266;50.866;4.398;2022-12-07T09:36:08;8.70;99.90
29237;DHT22;16266;50.866;4.398;2022-12-07T09:38:35;8.80;99.90
29237;DHT22;16266;50.866;4.398;2022-12-07T09:41:05;8.80;99.90
29237;DHT22;16266;50.866;4.398;2022-12-07T09:43:34;9.00;99.90
29237;DHT22;16266;50.866;4.398;2022-12-07T09:46:00;8.90;99.90
29237;DHT22;16266;50.866;4.398;2022-12-07T09:48:34;8.90;99.90
29237;DHT22;16266;50.866;4.398;2022-12-07T09:51:02;8.70;99.90
29237;DHT22;16266;50.866;4.398;2022-12-07T09:53:33;8.70;99.90
29237;DHT22;16266;50.866;4.398;2022-12-07T09:55:59;8.60;99.90
29237;DHT22;16266;50.866;4.398;2022-12-07T09:58:27;8.50;99.90
29237;DHT22;16266;50.866;4.398;2022-12-07T10:00:59;8.60;99.90
29237;DHT22;16266;50.866;4.398;2022-12-07T10:03:29;8.80;99.90
29237;DHT22;16266;50.866;4.398;2022-12-07T10:05:55;8.90;99.90
29237;DHT22;16266;50.866;4.398;2022-12-07T10:08:21;9.40;99.90
29237;DHT22;16266;50.866;4.398;2022-12-07T10:10:54;9.80;99.90
29237;DHT22;16266;50.866;4.398;2022-12-07T10:13:42;9.90;99.90
29237;DHT22;16266;50.866;4.398;2022-12-07T10:16:40;9.90;99.90
29237;DHT22;16266;50.866;4.398;2022-12-07T10:19:29;9.90;99.90
29237;DHT22;16266;50.866;4.398;2022-12-07T10:22:15;9.90;99.90
29237;DHT22;16266;50.866;4.398;2022-12-07T10:24:42;9.60;99.90
29237;DHT22;16266;50.866;4.398;2022-12-07T10:27:34;9.60;99.90
29237;DHT22;16266;50.866;4.398;2022-12-07T10:30:07;9.70;99.90
29237;DHT22;16266;50.866;4.398;2022-12-07T10:32:38;9.80;99.90
29237;DHT22;16266;50.866;4.398;2022-12-07T10:35:30;9.80;99.90
29237;DHT22;16266;50.866;4.398;2022-12-07T10:37:58;9.80;99.90
29237;DHT22;16266;50.866;4.398;2022-12-07T10:43:24;9.40;99.90
29237;DHT22;16266;50.866;4.398;2022-12-07T10:48:35;9.10;99.90
29237;DHT22;16266;50.866;4.398;2022-12-07T10:54:03;9.00;99.90
29237;DHT22;16266;50.866;4.398;2022-12-07T10:59:19;8.80;99.90
29237;DHT22;16266;50.866;4.398;2022-12-07T11:01:56;9.00;99.90
29237;DHT22;16266;50.866;4.398;2022-12-07T11:07:19;9.80;99.90
29237;DHT22;16266;50.866;4.398;2022-12-07T11:16:28;9.50;99.90
29237;DHT22;16266;50.866;4.398;2022-12-07T11:18:51;9.50;99.90
29237;DHT22;16266;50.866;4.398;2022-12-07T11:21:30;9.20;99.90
29237;DHT22;16266;50.866;4.398;2022-12-07T11:24:40;9.10;99.90
29237;DHT22;16266;50.866;4.398;2022-12-07T11:30:13;8.70;99.90
29237;DHT22;16266;50.866;4.398;2022-12-07T11:32:57;8.60;99.90
29237;DHT22;16266;50.866;4.398;2022-12-07T11:38:45;9.50;99.90
29237;DHT22;16266;50.866;4.398;2022-12-07T11:41:12;10.90;99.90
29237;DHT22;16266;50.866;4.398;2022-12-07T11:43:50;11.30;99.90
29237;DHT22;16266;50.866;4.398;2022-12-07T11:46:17;11.10;99.90
29237;DHT22;16266;50.866;4.398;2022-12-07T11:48:58;12.80;99.90
29237;DHT22;16266;50.866;4.398;2022-12-07T11:51:28;12.30;99.90
29237;DHT22;16266;50.866;4.398;2022-12-07T11:53:59;12.40;99.90
29237;DHT22;16266;50.866;4.398;2022-12-07T11:56:29;12.00;99.90
29237;DHT22;16266;50.866;4.398;2022-12-07T11:59:12;12.60;99.90
29237;DHT22;16266;50.866;4.398;2022-12-07T12:06:43;15.20;99.90
29237;DHT22;16266;50.866;4.398;2022-12-07T12:09:22;15.30;99.90
29237;DHT22;16266;50.866;4.398;2022-12-07T12:20:25;11.70;99.90
29237;DHT22;16266;50.866;4.398;2022-12-07T12:22:58;11.20;99.90
29237;DHT22;16266;50.866;4.398;2022-12-07T12:25:34;10.90;99.90
29237;DHT22;16266;50.866;4.398;2022-12-07T12:28:00;10.90;99.90
29237;DHT22;16266;50.866;4.398;2022-12-07T12:30:38;11.00;99.90
29237;DHT22;16266;50.866;4.398;2022-12-07T12:33:27;11.40;99.90
29237;DHT22;16266;50.866;4.398;2022-12-07T12:46:51;11.20;99.90
29237;DHT22;16266;50.866;4.398;2022-12-07T12:51:49;9.90;99.90
29237;DHT22;16266;50.866;4.398;2022-12-07T12:54:20;9.50;99.90
29237;DHT22;16266;50.866;4.398;2022-12-07T12:57:06;9.40;99.90
29237;DHT22;16266;50.866;4.398;2022-12-07T12:59:41;9.50;99.90
29237;DHT22;16266;50.866;4.398;2022-12-07T13:02:29;9.60;99.90
29237;DHT22;16266;50.866;4.398;2022-12-07T13:05:00;9.80;99.90
29237;DHT22;16266;50.866;4.398;2022-12-07T13:15:48;10.60;99.90
29237;DHT22;16266;50.866;4.398;2022-12-07T13:20:59;10.60;99.90
29237;DHT22;16266;50.866;4.398;2022-12-07T13:23:33;10.60;99.90
29237;DHT22;16266;50.866;4.398;2022-12-07T13:28:52;10.60;99.90
29237;DHT22;16266;50.866;4.398;2022-12-07T13:31:34;10.80;99.90
29237;DHT22;16266;50.866;4.398;2022-12-07T13:34:02;10.80;99.90
29237;DHT22;16266;50.866;4.398;2022-12-07T13:36:34;10.50;99.90
29237;DHT22;16266;50.866;4.398;2022-12-07T13:41:42;10.20;99.90
29237;DHT22;16266;50.866;4.398;2022-12-07T13:44:13;10.00;99.90
29237;DHT22;16266;50.866;4.398;2022-12-07T13:51:47;9.70;99.90
29237;DHT22;16266;50.866;4.398;2022-12-07T13:54:13;9.80;99.90
29237;DHT22;16266;50.866;4.398;2022-12-07T13:56:40;9.90;99.90
29237;DHT22;16266;50.866;4.398;2022-12-07T13:59:17;10.00;99.90
29237;DHT22;16266;50.866;4.398;2022-12-07T14:01:45;10.00;99.90
29237;DHT22;16266;50.866;4.398;2022-12-07T14:06:56;9.30;99.90
29237;DHT22;16266;50.866;4.398;2022-12-07T14:09:24;8.80;99.90
29237;DHT22;16266;50.866;4.398;2022-12-07T14:11:51;8.40;99.90
29237;DHT22;16266;50.866;4.398;2022-12-07T14:14:29;8.10;99.90
29237;DHT22;16266;50.866;4.398;2022-12-07T14:17:24;7.90;99.90
29237;DHT22;16266;50.866;4.398;2022-12-07T14:27:46;7.70;99.90
29237;DHT22;16266;50.866;4.398;2022-12-07T14:30:16;7.60;99.90
29237;DHT22;16266;50.866;4.398;2022-12-07T14:32:43;7.70;99.90
29237;DHT22;16266;50.866;4.398;2022-12-07T14:35:16;7.70;99.90
29237;DHT22;16266;50.866;4.398;2022-12-07T14:37:45;7.80;99.90
29237;DHT22;16266;50.866;4.398;2022-12-07T14:40:23;7.90;99.90
29237;DHT22;16266;50.866;4.398;2022-12-07T14:42:56;8.00;99.90
29237;DHT22;16266;50.866;4.398;2022-12-07T14:45:23;8.10;99.90
29237;DHT22;16266;50.866;4.398;2022-12-07T14:47:48;8.10;99.90
29237;DHT22;16266;50.866;4.398;2022-12-07T14:50:19;8.00;99.90
29237;DHT22;16266;50.866;4.398;2022-12-07T14:52:49;8.10;99.90
29237;DHT22;16266;50.866;4.398;2022-12-07T14:55:28;8.10;99.90
29237;DHT22;16266;50.866;4.398;2022-12-07T14:57:54;8.00;99.90
29237;DHT22;16266;50.866;4.398;2022-12-07T15:00:21;8.00;99.90
29237;DHT22;16266;50.866;4.398;2022-12-07T15:02:49;7.80;99.90
29237;DHT22;16266;50.866;4.398;2022-12-07T15:05:18;7.90;99.90
29237;DHT22;16266;50.866;4.398;2022-12-07T15:07:45;7.90;99.90
29237;DHT22;16266;50.866;4.398;2022-12-07T15:10:20;7.90;99.90
29237;DHT22;16266;50.866;4.398;2022-12-07T15:12:46;7.80;99.90
29237;DHT22;16266;50.866;4.398;2022-12-07T15:15:15;7.80;99.90
29237;DHT22;16266;50.866;4.398;2022-12-07T15:17:41;7.70;99.90
29237;DHT22;16266;50.866;4.398;2022-12-07T15:20:14;7.70;99.90
29237;DHT22;16266;50.866;4.398;2022-12-07T15:22:40;7.60;99.90
29237;DHT22;16266;50.866;4.398;2022-12-07T15:25:06;7.70;99.90
29237;DHT22;16266;50.866;4.398;2022-12-07T15:27:32;7.70;99.90
29237;DHT22;16266;50.866;4.398;2022-12-07T15:30:01;7.60;99.90
29237;DHT22;16266;50.866;4.398;2022-12-07T15:32:28;7.60;99.90
29237;DHT22;16266;50.866;4.398;2022-12-07T15:34:53;7.60;99.90
29237;DHT22;16266;50.866;4.398;2022-12-07T15:37:19;7.70;99.90
29237;DHT22;16266;50.866;4.398;2022-12-07T15:39:45;7.70;99.90
29237;DHT22;16266;50.866;4.398;2022-12-07T15:42:10;7.60;99.90
29237;DHT22;16266;50.866;4.398;2022-12-07T15:44:36;7.60;99.90
29237;DHT22;16266;50.866;4.398;2022-12-07T15:47:20;7.60;99.90
29237;DHT22;16266;50.866;4.398;2022-12-07T15:49:46;7.50;99.90
29237;DHT22;16266;50.866;4.398;2022-12-07T15:52:11;7.50;99.90
29237;DHT22;16266;50.866;4.398;2022-12-07T15:54:37;7.50;99.90
29237;DHT22;16266;50.866;4.398;2022-12-07T15:57:03;7.50;99.90
29237;DHT22;16266;50.866;4.398;2022-12-07T15:59:29;7.40;99.90
29237;DHT22;16266;50.866;4.398;2022-12-07T16:01:55;7.40;99.90
29237;DHT22;16266;50.866;4.398;2022-12-07T16:04:20;7.40;99.90
29237;DHT22;16266;50.866;4.398;2022-12-07T16:06:46;7.40;99.90
29237;DHT22;16266;50.866;4.398;2022-12-07T16:09:12;7.40;99.90
29237;DHT22;16266;50.866;4.398;2022-12-07T16:11:38;7.40;99.90
29237;DHT22;16266;50.866;4.398;2022-12-07T16:14:03;7.50;99.90
29237;DHT22;16266;50.866;4.398;2022-12-07T16:16:29;7.60;99.90
29237;DHT22;16266;50.866;4.398;2022-12-07T16:18:55;7.50;99.90
29237;DHT22;16266;50.866;4.398;2022-12-07T16:21:21;7.50;99.90
29237;DHT22;16266;50.866;4.398;2022-12-07T16:23:46;7.50;99.90
29237;DHT22;16266;50.866;4.398;2022-12-07T16:26:20;7.40;99.90
29237;DHT22;16266;50.866;4.398;2022-12-07T16:28:52;7.40;99.90
29237;DHT22;16266;50.866;4.398;2022-12-07T16:31:20;7.30;99.90
29237;DHT22;16266;50.866;4.398;2022-12-07T16:33:48;7.20;99.90
29237;DHT22;16266;50.866;4.398;2022-12-07T16:36:15;7.20;99.90
29237;DHT22;16266;50.866;4.398;2022-12-07T16:38:42;7.10;99.90
29237;DHT22;16266;50.866;4.398;2022-12-07T16:41:08;7.10;99.90
29237;DHT22;16266;50.866;4.398;2022-12-07T16:43:34;7.10;99.90
29237;DHT22;16266;50.866;4.398;2022-12-07T16:46:01;7.10;99.90
29237;DHT22;16266;50.866;4.398;2022-12-07T16:48:27;7.20;99.90
29237;DHT22;16266;50.866;4.398;2022-12-07T16:50:53;7.30;99.90
29237;DHT22;16266;50.866;4.398;2022-12-07T16:53:23;7.30;99.90
29237;DHT22;16266;50.866;4.398;2022-12-07T16:55:49;7.30;99.90
29237;DHT22;16266;50.866;4.398;2022-12-07T16:58:16;7.20;99.90
29237;DHT22;16266;50.866;4.398;2022-12-07T17:00:43;7.20;99.90
29237;DHT22;16266;50.866;4.398;2022-12-07T17:03:09;7.20;99.90
29237;DHT22;16266;50.866;4.398;2022-12-07T17:05:39;7.30;99.90
29237;DHT22;16266;50.866;4.398;2022-12-07T17:08:06;7.30;99.90
29237;DHT22;16266;50.866;4.398;2022-12-07T17:10:33;7.40;99.90
29237;DHT22;16266;50.866;4.398;2022-12-07T17:13:01;7.50;99.90
29237;DHT22;16266;50.866;4.398;2022-12-07T17:15:26;7.50;99.90
29237;DHT22;16266;50.866;4.398;2022-12-07T17:17:55;7.40;99.90
29237;DHT22;16266;50.866;4.398;2022-12-07T17:20:24;7.40;99.90
29237;DHT22;16266;50.866;4.398;2022-12-07T17:22:50;7.30;99.90
29237;DHT22;16266;50.866;4.398;2022-12-07T17:25:16;7.20;99.90
29237;DHT22;16266;50.866;4.398;2022-12-07T17:27:43;7.20;99.90
29237;DHT22;16266;50.866;4.398;2022-12-07T17:30:09;7.10;99.90
29237;DHT22;16266;50.866;4.398;2022-12-07T17:32:35;7.30;99.90
29237;DHT22;16266;50.866;4.398;2022-12-07T17:35:02;7.20;99.90
29237;DHT22;16266;50.866;4.398;2022-12-07T17:37:27;7.30;99.90
29237;DHT22;16266;50.866;4.398;2022-12-07T17:39:53;7.30;99.90
29237;DHT22;16266;50.866;4.398;2022-12-07T17:42:23;7.20;99.90
29237;DHT22;16266;50.866;4.398;2022-12-07T17:45:01;7.10;99.90